createdAt,value
2022-09-11T00:01:18.466Z,13.70
2022-09-11T00:03:48.017Z,13.70
2022-09-11T00:06:28.852Z,13.60
2022-09-11T00:09:00.517Z,13.60
2022-09-11T00:11:30.178Z,13.60
2022-09-11T00:13:58.680Z,13.60
2022-09-11T00:16:28.741Z,13.50
2022-09-11T00:18:59.111Z,13.50
2022-09-11T00:21:29.351Z,13.50
2022-09-11T00:23:57.828Z,13.50
2022-09-11T00:26:26.551Z,13.40
2022-09-11T00:28:55.310Z,13.40
2022-09-11T00:31:25.656Z,13.40
2022-09-11T00:33:53.907Z,13.40
2022-09-11T00:36:24.349Z,13.40
2022-09-11T00:38:54.790Z,13.30
2022-09-11T00:41:25.506Z,13.30
2022-09-11T00:43:56.545Z,13.30
2022-09-11T00:46:31.482Z,13.30
2022-09-11T00:49:01.455Z,13.30
2022-09-11T00:51:34.774Z,13.30
2022-09-11T00:54:05.323Z,13.30
2022-09-11T00:56:36.851Z,13.30
2022-09-11T00:59:07.071Z,13.30
2022-09-11T01:01:35.273Z,13.30
2022-09-11T01:04:05.030Z,13.30
2022-09-11T01:06:34.062Z,13.30
2022-09-11T01:09:03.948Z,13.30
2022-09-11T01:11:44.222Z,13.30
2022-09-11T01:14:22.766Z,13.30
2022-09-11T01:16:55.615Z,13.40
2022-09-11T01:19:42.910Z,13.40
2022-09-11T01:22:37.187Z,13.50
2022-09-11T01:25:24.215Z,13.60
2022-09-11T01:27:54.971Z,13.70
2022-09-11T01:30:24.923Z,13.80
2022-09-11T01:33:11.223Z,13.80
2022-09-11T01:35:52.816Z,13.90
2022-09-11T01:38:27.528Z,13.90
2022-09-11T01:40:59.525Z,13.90
2022-09-11T01:43:30.988Z,14.00
2022-09-11T01:46:02.350Z,14.10
2022-09-11T01:48:38.446Z,14.00
2022-09-11T01:51:09.262Z,14.00
2022-09-11T01:53:39.858Z,14.10
2022-09-11T01:56:13.116Z,14.00
2022-09-11T01:58:43.699Z,14.10
2022-09-11T02:01:18.647Z,14.10
2022-09-11T02:03:50.699Z,14.10
2022-09-11T02:06:23.304Z,14.10
2022-09-11T02:08:58.572Z,14.10
2022-09-11T02:11:29.353Z,14.10
2022-09-11T02:14:05.363Z,14.10
2022-09-11T02:16:44.856Z,14.10
2022-09-11T02:19:15.609Z,14.10
2022-09-11T02:21:44.590Z,14.10
2022-09-11T02:24:12.580Z,14.20
2022-09-11T02:26:44.851Z,14.20
2022-09-11T02:29:15.134Z,14.10
2022-09-11T02:31:44.233Z,14.20
2022-09-11T02:34:14.463Z,14.20
2022-09-11T02:37:01.051Z,14.20
2022-09-11T02:39:57.104Z,14.20
2022-09-11T02:42:39.545Z,14.30
2022-09-11T02:45:21.486Z,14.30
2022-09-11T02:47:56.865Z,14.20
2022-09-11T02:50:31.209Z,14.30
2022-09-11T02:53:05.718Z,14.30
2022-09-11T02:55:44.882Z,14.30
2022-09-11T02:58:19.017Z,14.30
2022-09-11T03:00:48.636Z,14.30
2022-09-11T03:03:16.782Z,14.30
2022-09-11T03:05:44.919Z,14.30
2022-09-11T03:08:14.240Z,14.30
2022-09-11T03:10:42.527Z,14.40
2022-09-11T03:13:10.823Z,14.60
2022-09-11T03:15:38.792Z,14.40
2022-09-11T03:18:08.116Z,14.40
2022-09-11T03:20:36.309Z,14.30
2022-09-11T03:23:09.648Z,14.30
2022-09-11T03:25:37.641Z,14.30
2022-09-11T03:28:05.545Z,14.30
2022-09-11T03:30:34.062Z,14.30
2022-09-11T03:33:02.181Z,14.30
2022-09-11T03:35:31.706Z,14.30
2022-09-11T03:38:00.356Z,14.20
2022-09-11T03:40:28.316Z,14.30
2022-09-11T03:42:56.211Z,14.30
2022-09-11T03:45:24.191Z,14.30
2022-09-11T03:47:53.721Z,14.30
2022-09-11T03:50:22.108Z,14.40
2022-09-11T03:52:51.761Z,14.40
2022-09-11T03:55:19.833Z,14.40
2022-09-11T03:57:47.742Z,14.40
2022-09-11T04:00:15.877Z,14.50
2022-09-11T04:02:43.765Z,14.50
2022-09-11T04:05:11.657Z,14.50
2022-09-11T04:07:39.514Z,14.50
2022-09-11T04:10:09.670Z,14.50
2022-09-11T04:12:37.558Z,14.50
2022-09-11T04:15:06.163Z,14.50
2022-09-11T04:17:34.867Z,14.50
2022-09-11T04:20:03.356Z,14.50
2022-09-11T04:22:31.348Z,14.50
2022-09-11T04:25:00.277Z,14.50
2022-09-11T04:27:29.540Z,14.50
2022-09-11T04:29:57.473Z,14.50
2022-09-11T04:32:25.489Z,14.40
2022-09-11T04:34:54.092Z,14.40
2022-09-11T04:37:22.010Z,14.40
2022-09-11T04:39:50.066Z,14.40
2022-09-11T04:42:18.058Z,14.40
2022-09-11T04:44:47.919Z,14.40
2022-09-11T04:47:16.915Z,14.30
2022-09-11T04:49:46.766Z,14.40
2022-09-11T04:52:15.294Z,14.40
2022-09-11T04:54:43.281Z,14.40
2022-09-11T04:57:11.196Z,14.40
2022-09-11T04:59:39.870Z,14.40
2022-09-11T05:02:09.273Z,14.40
2022-09-11T05:04:37.314Z,14.50
2022-09-11T05:07:05.437Z,14.50
2022-09-11T05:09:33.425Z,14.50
2022-09-11T05:12:02.218Z,14.50
2022-09-11T05:14:32.706Z,14.50
2022-09-11T05:17:01.495Z,14.60
2022-09-11T05:19:30.770Z,14.50
2022-09-11T05:21:58.707Z,14.50
2022-09-11T05:24:26.640Z,14.60
2022-09-11T05:26:54.600Z,14.60
2022-09-11T05:29:23.112Z,14.70
2022-09-11T05:31:52.672Z,14.60
2022-09-11T05:34:22.186Z,14.70
2022-09-11T05:36:52.247Z,14.70
2022-09-11T05:39:20.117Z,14.70
2022-09-11T05:41:50.811Z,14.80
2022-09-11T05:44:18.844Z,14.80
2022-09-11T05:46:47.043Z,14.90
2022-09-11T05:49:15.894Z,14.80
2022-09-11T05:51:43.818Z,14.80
2022-09-11T05:54:13.179Z,14.90
2022-09-11T05:56:41.483Z,14.90
2022-09-11T05:59:15.239Z,14.90
2022-09-11T06:01:43.976Z,14.90
2022-09-11T06:04:12.708Z,14.90
2022-09-11T06:06:40.906Z,15.00
2022-09-11T06:09:08.853Z,14.90
2022-09-11T06:11:38.225Z,14.90
2022-09-11T06:14:06.194Z,15.00
2022-09-11T06:16:35.142Z,14.90
2022-09-11T06:19:05.586Z,15.00
2022-09-11T06:21:33.484Z,15.00
2022-09-11T06:24:01.400Z,15.10
2022-09-11T06:26:29.918Z,15.10
2022-09-11T06:28:59.217Z,15.20
2022-09-11T06:31:28.553Z,15.20
2022-09-11T06:33:56.491Z,15.20
2022-09-11T06:36:27.030Z,15.20
2022-09-11T06:38:55.781Z,15.20
2022-09-11T06:41:24.728Z,15.30
2022-09-11T06:43:53.844Z,15.30
2022-09-11T06:46:25.076Z,15.30
2022-09-11T06:48:54.015Z,15.30
2022-09-11T06:51:23.904Z,15.40
2022-09-11T06:53:55.189Z,15.50
2022-09-11T06:56:23.561Z,15.50
2022-09-11T06:58:51.642Z,15.70
2022-09-11T07:01:20.940Z,15.90
2022-09-11T07:03:54.905Z,15.90
2022-09-11T07:06:25.040Z,15.90
2022-09-11T07:08:54.663Z,16.00
2022-09-11T07:11:22.674Z,16.10
2022-09-11T07:13:50.643Z,16.20
2022-09-11T07:16:18.976Z,16.20
2022-09-11T07:18:48.252Z,16.30
2022-09-11T07:21:21.288Z,16.20
2022-09-11T07:23:51.066Z,16.20
2022-09-11T07:26:19.962Z,16.10
2022-09-11T07:28:48.896Z,16.00
2022-09-11T07:31:20.881Z,16.10
2022-09-11T07:33:50.779Z,16.10
2022-09-11T07:36:21.410Z,16.20
2022-09-11T07:38:50.922Z,16.20
2022-09-11T07:41:21.522Z,16.20
2022-09-11T07:43:55.148Z,16.30
2022-09-11T07:46:24.370Z,16.40
2022-09-11T07:48:52.448Z,16.50
2022-09-11T07:51:22.018Z,16.60
2022-09-11T07:53:51.828Z,16.70
2022-09-11T07:56:23.254Z,16.60
2022-09-11T07:58:52.509Z,16.90
2022-09-11T08:01:22.326Z,17.00
2022-09-11T08:03:56.978Z,17.20
2022-09-11T08:06:28.442Z,17.40
2022-09-11T08:08:58.551Z,17.40
2022-09-11T08:11:28.823Z,17.30
2022-09-11T08:13:57.655Z,17.50
2022-09-11T08:16:28.152Z,17.90
2022-09-11T08:18:56.966Z,18.00
2022-09-11T08:21:27.671Z,18.00
2022-09-11T08:23:56.497Z,18.10
2022-09-11T08:26:28.560Z,18.00
2022-09-11T08:28:59.902Z,18.20
2022-09-11T08:31:28.986Z,18.20
2022-09-11T08:33:57.702Z,18.10
2022-09-11T08:36:27.593Z,18.00
2022-09-11T08:38:56.203Z,18.10
2022-09-11T08:41:33.612Z,18.20
2022-09-11T08:44:06.467Z,18.30
2022-09-11T08:46:38.338Z,18.40
2022-09-11T08:49:14.075Z,18.40
2022-09-11T08:51:44.901Z,18.40
2022-09-11T08:54:23.992Z,18.70
2022-09-11T08:56:53.096Z,18.90
2022-09-11T08:59:31.865Z,19.10
2022-09-11T09:02:11.205Z,19.20
2022-09-11T09:05:00.374Z,19.40
2022-09-11T09:07:39.910Z,19.50
2022-09-11T09:10:17.517Z,19.20
2022-09-11T09:12:53.060Z,18.80
2022-09-11T09:15:33.252Z,18.90
2022-09-11T09:18:05.337Z,18.80
2022-09-11T09:20:37.262Z,19.00
2022-09-11T09:23:14.722Z,19.30
2022-09-11T09:25:44.107Z,19.50
2022-09-11T09:28:20.435Z,19.80
2022-09-11T09:30:52.878Z,19.90
2022-09-11T09:33:30.741Z,19.50
2022-09-11T09:36:11.863Z,19.40
2022-09-11T09:38:41.463Z,19.30
2022-09-11T09:41:44.917Z,19.30
2022-09-11T09:44:19.909Z,19.50
2022-09-11T09:46:51.149Z,19.50
2022-09-11T09:49:24.143Z,19.80
2022-09-11T09:51:52.718Z,19.80
2022-09-11T09:54:26.509Z,19.60
2022-09-11T09:56:59.977Z,19.80
2022-09-11T09:59:33.510Z,20.10
2022-09-11T10:02:01.653Z,20.30
2022-09-11T10:04:30.471Z,20.60
2022-09-11T10:07:08.651Z,20.60
2022-09-11T10:09:45.628Z,20.70
2022-09-11T10:12:18.000Z,20.70
2022-09-11T10:14:53.125Z,20.40
2022-09-11T10:17:23.425Z,20.20
2022-09-11T10:19:54.568Z,20.10
2022-09-11T10:22:28.533Z,20.00
2022-09-11T10:25:12.425Z,20.10
2022-09-11T10:27:50.671Z,20.40
2022-09-11T10:30:28.746Z,20.70
2022-09-11T10:33:03.305Z,20.90
2022-09-11T10:35:33.111Z,21.10
2022-09-11T10:38:19.531Z,21.30
2022-09-11T10:41:04.213Z,21.20
2022-09-11T10:43:44.441Z,21.20
2022-09-11T10:46:25.531Z,21.20
2022-09-11T10:48:55.167Z,21.20
2022-09-11T10:51:24.041Z,20.90
2022-09-11T10:54:03.250Z,20.70
2022-09-11T10:56:37.689Z,20.50
2022-09-11T10:59:12.827Z,20.20
2022-09-11T11:01:40.971Z,19.90
2022-09-11T11:04:12.568Z,19.90
2022-09-11T11:06:55.145Z,19.80
2022-09-11T11:09:37.084Z,20.10
2022-09-11T11:12:31.865Z,20.70
2022-09-11T11:15:28.159Z,21.10
2022-09-11T11:18:18.013Z,21.40
2022-09-11T11:20:54.698Z,21.80
2022-09-11T11:23:34.822Z,22.20
2022-09-11T11:26:24.187Z,22.20
2022-09-11T11:29:18.702Z,22.40
2022-09-11T11:32:01.807Z,22.30
2022-09-11T11:34:44.046Z,22.40
2022-09-11T11:37:17.840Z,22.40
2022-09-11T11:39:57.223Z,22.30
2022-09-11T11:42:28.885Z,22.10
2022-09-11T11:45:01.589Z,21.90
2022-09-11T11:47:33.441Z,21.70
2022-09-11T11:50:07.706Z,21.40
2022-09-11T11:52:47.177Z,21.00
2022-09-11T11:55:18.672Z,20.60
2022-09-11T11:57:55.074Z,20.50
2022-09-11T12:00:25.940Z,20.40
2022-09-11T12:02:59.456Z,20.50
2022-09-11T12:05:31.921Z,20.60
2022-09-11T12:08:00.158Z,20.50
2022-09-11T12:10:33.494Z,20.70
2022-09-11T12:13:04.588Z,21.10
2022-09-11T12:15:35.697Z,21.50
2022-09-11T12:18:06.820Z,22.00
2022-09-11T12:20:42.239Z,22.30
2022-09-11T12:23:35.867Z,22.60
2022-09-11T12:26:18.664Z,22.60
2022-09-11T12:28:47.184Z,23.10
2022-09-11T12:31:17.466Z,23.50
2022-09-11T12:33:56.148Z,23.80
2022-09-11T12:36:48.105Z,24.10
2022-09-11T12:39:24.985Z,23.90
2022-09-11T12:41:53.531Z,24.10
2022-09-11T12:44:33.922Z,23.90
2022-09-11T12:47:23.299Z,24.00
2022-09-11T12:49:58.195Z,23.70
2022-09-11T12:52:42.785Z,23.20
2022-09-11T12:55:29.712Z,23.00
2022-09-11T12:58:02.374Z,22.60
2022-09-11T13:00:36.389Z,22.10
2022-09-11T13:03:07.237Z,21.90
2022-09-11T13:05:39.803Z,21.80
2022-09-11T13:08:16.481Z,21.90
2022-09-11T13:10:46.742Z,22.40
2022-09-11T13:13:49.174Z,22.90
2022-09-11T13:16:24.458Z,23.20
2022-09-11T13:19:00.260Z,23.40
2022-09-11T13:21:28.319Z,23.50
2022-09-11T13:24:01.609Z,23.80
2022-09-11T13:26:31.977Z,23.80
2022-09-11T13:29:02.011Z,23.90
2022-09-11T13:31:35.440Z,24.10
2022-09-11T13:34:07.882Z,24.20
2022-09-11T13:36:37.963Z,24.00
2022-09-11T13:39:06.858Z,24.10
2022-09-11T13:41:38.494Z,24.10
2022-09-11T13:44:11.784Z,23.80
2022-09-11T13:46:51.076Z,23.80
2022-09-11T13:49:33.593Z,24.10
2022-09-11T13:52:01.823Z,24.10
2022-09-11T13:54:32.377Z,24.20
2022-09-11T13:57:14.662Z,24.40
2022-09-11T13:59:48.229Z,24.50
2022-09-11T14:02:25.243Z,24.40
2022-09-11T14:05:02.030Z,24.30
2022-09-11T14:07:30.200Z,24.10
2022-09-11T14:10:04.196Z,23.90
2022-09-11T14:12:33.112Z,23.70
2022-09-11T14:15:06.263Z,23.60
2022-09-11T14:17:34.312Z,23.40
2022-09-11T14:20:04.131Z,23.40
2022-09-11T14:22:33.455Z,23.60
2022-09-11T14:25:18.132Z,23.90
2022-09-11T14:27:46.501Z,23.80
2022-09-11T14:30:37.494Z,23.90
2022-09-11T14:33:19.297Z,23.80
2022-09-11T14:35:50.181Z,23.80
2022-09-11T14:38:21.540Z,23.60
2022-09-11T14:40:53.341Z,23.30
2022-09-11T14:43:26.871Z,23.20
2022-09-11T14:45:55.054Z,22.90
2022-09-11T14:48:23.238Z,22.80
2022-09-11T14:50:52.659Z,22.70
2022-09-11T14:53:35.086Z,22.50
2022-09-11T14:56:05.495Z,22.30
2022-09-11T14:58:33.420Z,22.30
2022-09-11T15:01:02.310Z,22.20
2022-09-11T15:03:31.722Z,22.10
2022-09-11T15:06:01.112Z,21.90
2022-09-11T15:08:29.037Z,21.70
2022-09-11T15:10:56.955Z,21.70
2022-09-11T15:13:24.842Z,21.50
2022-09-11T15:15:52.874Z,21.40
2022-09-11T15:18:20.966Z,21.20
2022-09-11T15:20:49.123Z,21.10
2022-09-11T15:23:18.418Z,21.10
2022-09-11T15:25:46.451Z,21.00
2022-09-11T15:28:14.599Z,21.00
2022-09-11T15:30:42.822Z,20.90
2022-09-11T15:33:11.297Z,20.90
2022-09-11T15:35:39.214Z,20.70
2022-09-11T15:38:07.189Z,20.60
2022-09-11T15:40:37.705Z,20.70
2022-09-11T15:43:05.630Z,20.70
2022-09-11T15:45:33.730Z,20.80
2022-09-11T15:48:02.290Z,20.80
2022-09-11T15:50:30.280Z,21.00
2022-09-11T15:52:58.854Z,21.10
2022-09-11T15:55:29.435Z,21.20
2022-09-11T15:58:01.080Z,21.10
2022-09-11T16:00:29.304Z,21.20
2022-09-11T16:02:57.484Z,21.20
2022-09-11T16:05:25.597Z,21.20
2022-09-11T16:07:53.528Z,21.20
2022-09-11T16:10:21.960Z,21.20
2022-09-11T16:12:50.300Z,21.10
2022-09-11T16:15:19.645Z,21.10
2022-09-11T16:17:48.313Z,21.30
2022-09-11T16:20:16.389Z,21.90
2022-09-11T16:22:45.643Z,25.30
2022-09-11T16:25:13.572Z,26.00
2022-09-11T16:27:43.613Z,26.30
2022-09-11T16:30:42.668Z,26.70
2022-09-11T16:33:02.213Z,26.20
2022-09-11T16:35:31.990Z,25.20
2022-09-11T16:38:00.718Z,24.30
2022-09-11T16:40:28.865Z,23.80
2022-09-11T16:42:56.790Z,23.60
2022-09-11T16:45:24.793Z,23.20
2022-09-11T16:47:52.849Z,22.70
2022-09-11T16:50:24.296Z,22.40
2022-09-11T16:52:52.384Z,22.20
2022-09-11T16:55:21.262Z,21.90
2022-09-11T16:57:49.215Z,21.60
2022-09-11T17:00:17.236Z,21.50
2022-09-11T17:02:45.467Z,21.20
2022-09-11T17:05:13.834Z,20.90
2022-09-11T17:07:43.133Z,20.80
2022-09-11T17:10:11.533Z,20.70
2022-09-11T17:12:39.490Z,20.60
2022-09-11T17:15:08.758Z,20.50
2022-09-11T17:17:37.066Z,20.30
2022-09-11T17:20:05.490Z,20.20
2022-09-11T17:22:33.478Z,20.00
2022-09-11T17:25:02.812Z,19.80
2022-09-11T17:27:31.088Z,19.70
2022-09-11T17:29:59.140Z,19.60
2022-09-11T17:32:28.576Z,19.50
2022-09-11T17:34:57.033Z,19.30
2022-09-11T17:37:25.874Z,19.20
2022-09-11T17:39:53.800Z,19.00
2022-09-11T17:42:23.684Z,18.90
2022-09-11T17:44:51.587Z,18.70
2022-09-11T17:47:19.515Z,18.60
2022-09-11T17:49:47.402Z,18.40
2022-09-11T17:52:15.469Z,18.30
2022-09-11T17:54:43.640Z,18.10
2022-09-11T17:57:12.312Z,17.90
2022-09-11T17:59:42.533Z,17.80
2022-09-11T18:02:15.697Z,17.60
2022-09-11T18:04:44.205Z,17.40
2022-09-11T18:07:12.533Z,17.40
2022-09-11T18:09:40.601Z,17.30
2022-09-11T18:12:08.759Z,17.20
2022-09-11T18:14:38.251Z,17.10
2022-09-11T18:17:07.701Z,17.10
2022-09-11T18:19:37.626Z,17.00
2022-09-11T18:22:06.598Z,16.90
2022-09-11T18:24:34.711Z,16.80
2022-09-11T18:27:03.567Z,16.80
2022-09-11T18:29:31.634Z,16.70
2022-09-11T18:32:00.203Z,16.70
2022-09-11T18:34:31.060Z,16.70
2022-09-11T18:36:59.947Z,16.60
2022-09-11T18:39:28.188Z,16.50
2022-09-11T18:41:56.305Z,16.50
2022-09-11T18:44:25.413Z,16.40
2022-09-11T18:46:54.376Z,16.30
2022-09-11T18:49:22.515Z,16.30
2022-09-11T18:51:52.161Z,16.20
2022-09-11T18:54:21.545Z,16.20
2022-09-11T18:56:51.042Z,16.10
2022-09-11T18:59:20.044Z,16.00
2022-09-11T19:01:48.118Z,15.90
2022-09-11T19:04:16.809Z,15.90
2022-09-11T19:06:46.243Z,15.80
2022-09-11T19:09:15.788Z,15.70
2022-09-11T19:11:44.244Z,15.70
2022-09-11T19:14:13.709Z,15.60
2022-09-11T19:16:42.604Z,15.60
2022-09-11T19:19:10.793Z,15.50
2022-09-11T19:21:38.841Z,15.60
2022-09-11T19:24:07.824Z,15.60
2022-09-11T19:26:38.746Z,15.50
2022-09-11T19:29:08.472Z,15.50
2022-09-11T19:31:39.002Z,15.40
2022-09-11T19:34:08.663Z,15.30
2022-09-11T19:36:36.942Z,15.30
2022-09-11T19:39:06.443Z,15.30
2022-09-11T19:41:38.642Z,15.20
2022-09-11T19:44:08.355Z,15.20
2022-09-11T19:57:19.823Z,15.10
2022-09-11T19:59:54.423Z,15.00
2022-09-11T20:02:22.540Z,14.90
2022-09-11T20:15:00.434Z,14.80
2022-09-11T20:21:28.766Z,14.70
2022-09-11T20:23:57.486Z,14.70
2022-09-11T20:27:04.863Z,14.70
2022-09-11T20:33:00.635Z,14.60
2022-09-11T20:39:55.783Z,14.50
2022-09-11T20:43:28.409Z,14.50
2022-09-11T20:46:08.577Z,14.40
2022-09-11T20:48:38.305Z,14.30
2022-09-11T20:51:07.942Z,14.30
2022-09-11T20:53:51.234Z,14.30
2022-09-11T20:56:24.739Z,14.30
2022-09-11T20:58:57.454Z,14.30
2022-09-11T21:01:27.171Z,14.20
2022-09-11T21:04:02.215Z,14.10
2022-09-11T21:06:36.787Z,14.10
2022-09-11T21:09:08.276Z,14.00
2022-09-11T21:11:38.648Z,14.00
2022-09-11T21:14:09.010Z,13.90
2022-09-11T21:16:37.319Z,13.90
2022-09-11T21:19:07.785Z,13.90
2022-09-11T21:21:37.895Z,13.90
2022-09-11T21:24:08.691Z,13.90
2022-09-11T21:26:37.398Z,13.80
2022-09-11T21:29:07.677Z,13.90
2022-09-11T21:31:37.225Z,13.80
2022-09-11T21:34:06.703Z,13.70
2022-09-11T21:36:36.740Z,13.70
2022-09-11T21:39:05.584Z,13.70
2022-09-11T21:41:33.665Z,13.60
2022-09-11T21:44:01.789Z,13.70
2022-09-11T21:46:29.967Z,13.70
2022-09-11T21:48:58.087Z,13.60
2022-09-11T21:51:27.569Z,13.60
2022-09-11T21:54:01.484Z,13.50
2022-09-11T21:56:32.376Z,13.60
2022-09-11T21:59:01.050Z,13.50
2022-09-11T22:01:31.658Z,13.40
2022-09-11T22:04:01.179Z,13.50
2022-09-11T22:06:31.107Z,13.50
2022-09-11T22:08:59.688Z,13.50
2022-09-11T22:11:28.136Z,13.40
2022-09-11T22:13:56.459Z,13.40
2022-09-11T22:16:24.681Z,13.40
2022-09-11T22:18:54.464Z,13.30
2022-09-11T22:21:22.640Z,13.30
2022-09-11T22:23:52.448Z,13.30
2022-09-11T22:26:23.522Z,13.30
2022-09-11T22:28:52.341Z,13.30
2022-09-11T22:31:23.680Z,13.20
2022-09-11T22:33:51.942Z,13.20
2022-09-11T22:36:23.419Z,13.20
2022-09-11T22:38:53.316Z,13.20
2022-09-11T22:41:22.272Z,13.20
2022-09-11T22:43:50.688Z,13.20
2022-09-11T22:46:20.716Z,13.10
2022-09-11T22:48:49.536Z,13.10
2022-09-11T22:51:17.709Z,13.00
2022-09-11T22:53:46.139Z,13.00
2022-09-11T22:56:16.005Z,13.00
2022-09-11T22:58:44.210Z,13.00
2022-09-11T23:01:17.568Z,13.00
2022-09-11T23:03:47.900Z,12.90
2022-09-11T23:06:33.166Z,12.90
2022-09-11T23:09:01.639Z,12.90
2022-09-11T23:11:31.027Z,12.90
2022-09-11T23:13:59.347Z,12.80
2022-09-11T23:16:29.590Z,12.80
2022-09-11T23:19:00.024Z,12.80
2022-09-11T23:21:32.463Z,12.90
2022-09-11T23:24:01.960Z,12.90
2022-09-11T23:26:31.680Z,12.90
2022-09-11T23:29:00.074Z,12.90
2022-09-11T23:31:30.282Z,12.80
2022-09-11T23:34:01.183Z,12.70
2022-09-11T23:36:30.742Z,12.70
2022-09-11T23:38:59.843Z,12.60
2022-09-11T23:41:28.810Z,12.60
2022-09-11T23:43:58.283Z,12.50
2022-09-11T23:46:27.003Z,12.50
2022-09-11T23:48:55.432Z,12.50
2022-09-11T23:51:23.524Z,12.50
2022-09-11T23:53:51.928Z,12.50
2022-09-11T23:56:20.937Z,12.50
2022-09-11T23:58:49.360Z,12.40
